Time;durP1;ratioP1;P1;durP2;ratioP2;P2;SDS_P1;SDS_P2;PMS_P1;PMS_P2;Temp;Humidity;BMP_temperature;BMP_pressure;BME280_temperature;BME280_humidity;BME280_pressure;Samples;Min_cycle;Max_cycle;Signal;HPM_P1;HPM_P2
2021/06/19 00:01:36;;;;;;;7.25;6.13;;;;;;;22.89;54.54;100408.75;4920993;28;108003;-75
2021/06/19 00:04:03;;;;;;;6.78;6.07;;;;;;;22.93;53.58;100404.19;4905560;28;113608;-78
2021/06/19 00:06:30;;;;;;;7.05;6.00;;;;;;;23.06;53.12;100406.84;4908711;28;98549;-75
2021/06/19 00:08:56;;;;;;;6.53;5.75;;;;;;;23.13;53.34;100407.84;4920160;28;98101;-78
2021/06/19 00:11:22;;;;;;;7.00;6.15;;;;;;;22.89;53.60;100411.50;4888587;28;119105;-75
2021/06/19 00:13:48;;;;;;;7.90;6.55;;;;;;;22.69;54.74;100426.25;4888169;28;128547;-75
2021/06/19 00:16:14;;;;;;;6.95;6.35;;;;;;;22.78;54.76;100410.41;4904005;28;127633;-78
2021/06/19 00:18:40;;;;;;;7.47;6.70;;;;;;;22.85;55.08;100413.34;4903816;28;127396;-75
2021/06/19 00:21:06;;;;;;;7.20;6.53;;;;;;;22.41;55.53;100416.06;4922757;28;117092;-75
2021/06/19 00:23:32;;;;;;;7.10;6.40;;;;;;;22.62;54.86;100413.09;4904933;28;99803;-75
2021/06/19 00:25:58;;;;;;;7.30;6.60;;;;;;;22.15;56.41;100410.16;4921981;28;98510;-75
2021/06/19 00:28:24;;;;;;;7.30;6.70;;;;;;;22.20;55.83;100413.47;4921696;28;98368;-78
2021/06/19 00:30:51;;;;;;;7.40;6.70;;;;;;;22.16;56.11;100409.81;4888595;28;98227;-75
2021/06/19 00:33:17;;;;;;;7.38;6.78;;;;;;;22.12;56.49;100416.31;4920935;28;98671;-74
2021/06/19 00:35:44;;;;;;;7.60;6.80;;;;;;;22.11;56.68;100414.72;4922982;28;98322;-78
2021/06/19 00:38:10;;;;;;;8.50;7.13;;;;;;;22.06;57.21;100405.59;4917827;28;97892;-77
2021/06/19 00:40:36;;;;;;;8.35;7.00;;;;;;;21.60;58.41;100414.31;4940106;28;98070;-75
2021/06/19 00:43:04;;;;;;;8.00;7.20;;;;;;;21.60;58.71;100417.06;4923111;28;126867;-75
2021/06/19 00:45:37;;;;;;;7.18;6.57;;;;;;;21.95;57.29;100403.66;4940690;28;98594;-77
2021/06/19 00:48:10;;;;;;;7.20;6.53;;;;;;;22.04;57.04;100407.06;4940892;28;97905;-77
2021/06/19 00:50:36;;;;;;;8.00;6.30;;;;;;;22.00;56.58;100409.69;4940727;28;98011;-77
2021/06/19 00:53:03;;;;;;;10.88;6.82;;;;;;;21.71;56.90;100401.75;4939989;28;98650;-75
2021/06/19 00:55:29;;;;;;;8.30;6.65;;;;;;;21.97;56.62;100409.63;4940752;28;99030;-77
2021/06/19 00:57:56;;;;;;;7.47;6.20;;;;;;;21.87;57.27;100410.06;4938050;28;114635;-77
2021/06/19 01:00:22;;;;;;;7.38;6.68;;;;;;;21.88;57.77;100404.22;4923763;28;102761;-77
2021/06/19 01:02:50;;;;;;;9.40;7.32;;;;;;;21.73;58.51;100410.41;4941796;28;98723;-77
2021/06/19 01:05:16;;;;;;;8.20;7.40;;;;;;;21.72;58.71;100409.63;4935868;28;117506;-75
2021/06/19 01:07:42;;;;;;;8.05;7.25;;;;;;;21.84;58.23;100411.56;4888812;28;99370;-75
2021/06/19 01:10:09;;;;;;;7.78;7.05;;;;;;;21.71;58.61;100408.03;4904833;28;98505;-77
2021/06/19 01:12:35;;;;;;;7.68;6.97;;;;;;;21.81;58.05;100402.09;4921802;28;113263;-77
2021/06/19 01:15:01;;;;;;;7.80;7.10;;;;;;;21.93;58.29;100412.25;4920231;28;98645;-77
2021/06/19 01:17:27;;;;;;;7.68;6.85;;;;;;;21.81;57.54;100404.00;4904207;28;100690;-75
2021/06/19 01:20:05;;;;;;;7.57;6.80;;;;;;;21.45;58.47;100402.88;4920987;28;98280;-77
2021/06/19 01:22:32;;;;;;;7.80;7.00;;;;;;;21.87;57.98;100386.19;4888268;28;100871;-78
2021/06/19 01:25:02;;;;;;;7.95;7.25;;;;;;;21.71;58.13;100399.00;4904131;28;110945;-77
2021/06/19 01:27:29;;;;;;;7.97;7.15;;;;;;;21.88;57.92;100398.75;4921944;28;101892;-78
2021/06/19 01:29:57;;;;;;;8.15;7.32;;;;;;;21.81;57.94;100402.09;4920169;28;98122;-77
2021/06/19 01:32:26;;;;;;;8.23;7.45;;;;;;;21.67;58.26;100400.84;4922110;28;98207;-74
2021/06/19 01:34:52;;;;;;;7.53;6.82;;;;;;;21.41;59.38;100406.63;4904109;28;116953;-77
2021/06/19 01:37:18;;;;;;;7.47;6.80;;;;;;;21.43;59.25;100405.16;4902906;28;126404;-77
2021/06/19 01:39:44;;;;;;;7.80;7.05;;;;;;;21.45;59.01;100396.59;4921413;28;115810;-75
2021/06/19 01:42:11;;;;;;;7.80;7.07;;;;;;;21.37;59.07;100394.75;4904918;28;100187;-75
2021/06/19 01:44:37;;;;;;;7.97;7.10;;;;;;;21.58;58.64;100394.66;4903869;28;98890;-77
2021/06/19 01:47:03;;;;;;;7.60;6.90;;;;;;;21.56;58.59;100400.47;4920732;28;126256;-75
2021/06/19 01:49:36;;;;;;;7.80;7.13;;;;;;;21.70;58.49;100403.69;4918956;28;117945;-75
2021/06/19 01:52:03;;;;;;;7.53;6.88;;;;;;;21.59;58.62;100399.00;4919597;28;99426;-77
2021/06/19 01:54:37;;;;;;;7.20;6.57;;;;;;;21.55;58.80;100398.88;4920188;28;98082;-75
2021/06/19 01:57:07;;;;;;;8.20;7.40;;;;;;;21.18;60.47;100389.78;4922514;28;97978;-75
2021/06/19 01:59:36;;;;;;;8.07;7.38;;;;;;;21.26;59.50;100397.09;4920267;28;98036;-78
2021/06/19 02:02:03;;;;;;;8.40;7.60;;;;;;;21.16;59.70;100392.09;4907502;28;126452;-77
2021/06/19 02:04:31;;;;;;;7.78;7.07;;;;;;;20.99;60.60;100388.41;4939140;28;98759;-77
2021/06/19 02:06:57;;;;;;;9.45;7.88;;;;;;;21.12;60.29;100382.94;4939278;28;98157;-75
2021/06/19 02:09:23;;;;;;;8.32;6.78;;;;;;;21.04;60.44;100379.16;4922262;28;104167;-75
2021/06/19 02:11:49;;;;;;;11.65;6.88;;;;;;;20.62;61.39;100390.22;4938554;28;127871;-77
2021/06/19 02:14:16;;;;;;;8.00;7.20;;;;;;;20.64;61.09;100387.97;4939754;28;124949;-75
2021/06/19 02:16:43;;;;;;;8.10;7.30;;;;;;;20.81;61.23;100387.78;4923039;28;98249;-78
2021/06/19 02:19:09;;;;;;;8.00;7.03;;;;;;;21.01;60.12;100390.78;4907884;28;102810;-77
2021/06/19 02:21:35;;;;;;;7.50;6.80;;;;;;;20.74;61.06;100394.94;4920942;28;125730;-75
2021/06/19 02:24:02;;;;;;;7.97;7.18;;;;;;;20.87;60.74;100393.84;4903133;28;104687;-77
2021/06/19 02:26:28;;;;;;;9.00;7.57;;;;;;;20.74;61.18;100403.16;4907084;28;98495;-77
2021/06/19 02:28:54;;;;;;;8.52;7.72;;;;;;;20.95;61.14;100397.66;4924061;28;117390;-75
2021/06/19 02:31:21;;;;;;;8.85;8.05;;;;;;;20.59;62.05;100394.44;4919281;28;106632;-77
2021/06/19 02:33:47;;;;;;;8.60;7.80;;;;;;;20.86;61.23;100397.72;4944620;28;98898;-74
2021/06/19 02:36:14;;;;;;;8.88;8.10;;;;;;;20.76;61.66;100392.69;4942322;28;97857;-77
2021/06/19 02:38:40;;;;;;;8.85;7.85;;;;;;;21.11;60.82;100382.16;4942736;28;98040;-77
2021/06/19 02:41:06;;;;;;;8.35;7.50;;;;;;;20.91;61.20;100392.03;4925655;28;111586;-75
2021/06/19 02:43:33;;;;;;;7.78;7.07;;;;;;;20.79;61.61;100392.81;4941769;28;121994;-75
2021/06/19 02:45:59;;;;;;;8.40;7.63;;;;;;;20.41;62.68;100397.63;4941247;28;126595;-75
2021/06/19 02:48:28;;;;;;;8.50;7.60;;;;;;;20.83;61.68;100391.00;4910343;28;97883;-78
2021/06/19 02:50:55;;;;;;;9.02;8.23;;;;;;;20.66;62.18;100398.56;4908672;28;118520;-77
2021/06/19 02:53:21;;;;;;;8.75;7.90;;;;;;;20.86;61.73;100392.22;4944479;28;98506;-75
2021/06/19 02:55:47;;;;;;;8.88;8.07;;;;;;;20.65;61.95;100391.50;4926176;28;98486;-76
2021/06/19 02:58:14;;;;;;;8.63;7.82;;;;;;;20.68;62.02;100401.78;4941496;28;116743;-76
2021/06/19 03:00:40;;;;;;;8.35;7.65;;;;;;;20.97;61.46;100398.09;4921932;28;98231;-76
2021/06/19 03:03:07;;;;;;;9.18;8.27;;;;;;;20.80;61.97;100396.34;4922592;28;98307;-75
2021/06/19 03:05:34;;;;;;;8.63;7.55;;;;;;;20.89;62.16;100393.50;4905920;28;104447;-76
2021/06/19 03:08:00;;;;;;;9.23;8.25;;;;;;;20.66;62.43;100396.63;4923014;28;97860;-75
2021/06/19 03:10:32;;;;;;;8.88;8.07;;;;;;;20.71;62.35;100407.38;4905035;28;126280;-76
2021/06/19 03:12:58;;;;;;;8.57;7.85;;;;;;;20.75;62.59;100404.75;4906542;28;98388;-75
2021/06/19 03:15:25;;;;;;;8.85;7.90;;;;;;;20.22;64.21;100417.25;4921997;28;98323;-74
2021/06/19 03:17:51;;;;;;;9.05;8.30;;;;;;;20.44;63.70;100410.66;4922503;28;97993;-74
2021/06/19 03:20:18;;;;;;;8.90;8.05;;;;;;;20.39;63.87;100406.16;4923330;28;118899;-76
2021/06/19 03:22:52;;;;;;;9.82;8.35;;;;;;;20.62;63.22;100414.06;4906402;28;98681;-75
2021/06/19 03:25:26;;;;;;;9.73;8.73;;;;;;;20.55;63.52;100412.69;4906488;28;98203;-75
2021/06/19 03:27:52;;;;;;;9.20;8.38;;;;;;;20.15;64.86;100415.03;4926202;28;98069;-76
2021/06/19 03:30:19;;;;;;;9.07;8.15;;;;;;;;;;4905731;28;106877;-76
2021/06/19 03:32:46;;;;;;;9.07;8.20;;;;;;;20.65;63.48;100411.47;4922612;28;98813;-76
2021/06/19 03:35:12;;;;;;;9.77;8.38;;;;;;;20.73;63.30;100420.72;4923205;28;97887;-74
2021/06/19 03:37:38;;;;;;;9.38;8.38;;;;;;;20.89;62.79;100418.16;4907330;28;102285;-75
2021/06/19 03:40:09;;;;;;;9.30;8.50;;;;;;;20.86;62.50;100418.81;4943950;28;97944;-75
2021/06/19 03:42:39;;;;;;;9.40;8.50;;;;;;;20.84;63.19;100411.75;4926327;28;98356;-75
2021/06/19 03:45:06;;;;;;;9.55;8.68;;;;;;;20.94;63.16;100418.72;4943090;28;98261;-76
2021/06/19 03:47:32;;;;;;;9.60;8.70;;;;;;;21.12;62.40;100418.56;4943798;28;102675;-76
2021/06/19 03:49:58;;;;;;;9.68;8.68;;;;;;;21.22;62.72;100421.69;4942602;28;109691;-75
2021/06/19 03:52:24;;;;;;;12.82;8.60;;;;;;;21.21;62.61;100431.03;4941208;28;99664;-76
2021/06/19 03:54:51;;;;;;;9.23;8.43;;;;;;;21.31;62.47;100421.56;4922913;28;125408;-76
2021/06/19 03:57:25;;;;;;;10.00;8.98;;;;;;;21.36;62.42;100428.81;4922180;28;98065;-76
2021/06/19 03:59:52;;;;;;;10.77;8.93;;;;;;;21.35;62.22;100427.22;4905527;28;98668;-72
2021/06/19 04:02:19;;;;;;;10.15;9.35;;;;;;;21.48;62.26;100426.06;4923611;28;98666;-72
2021/06/19 04:04:46;;;;;;;9.95;9.02;;;;;;;21.48;61.85;100426.06;4921801;28;98629;-74
2021/06/19 04:07:12;;;;;;;11.27;9.68;;;;;;;21.47;61.74;100433.50;4906322;28;97937;-76
2021/06/19 04:09:38;;;;;;;11.80;9.48;;;;;;;21.61;61.47;100430.41;4920009;28;115136;-72
2021/06/19 04:12:05;;;;;;;10.63;9.60;;;;;;;21.43;62.44;100438.06;4905182;28;97853;-76
2021/06/19 04:14:31;;;;;;;10.38;9.45;;;;;;;21.25;63.20;100433.88;4920522;28;98518;-72
2021/06/19 04:16:57;;;;;;;10.73;9.63;;;;;;;21.20;63.59;100434.91;4923328;28;97714;-77
2021/06/19 04:19:24;;;;;;;11.05;9.43;;;;;;;21.51;62.64;100434.41;4920560;28;127925;-76
2021/06/19 04:21:50;;;;;;;10.75;9.60;;;;;;;21.42;62.78;100441.97;4915782;28;98444;-73
2021/06/19 04:24:16;;;;;;;10.98;9.88;;;;;;;21.57;61.60;100445.94;4920434;28;99597;-75
2021/06/19 04:26:42;;;;;;;10.43;9.43;;;;;;;21.80;61.21;100438.06;4920943;28;113377;-73
2021/06/19 04:29:08;;;;;;;11.55;9.25;;;;;;;21.85;61.69;100442.53;4938840;28;127849;-77
2021/06/19 04:31:34;;;;;;;10.98;9.95;;;;;;;21.92;61.74;100435.31;4939614;28;110225;-73
2021/06/19 04:34:01;;;;;;;10.65;9.55;;;;;;;21.73;61.85;100424.94;4919536;28;127909;-76
2021/06/19 04:36:27;;;;;;;11.18;9.98;;;;;;;21.94;61.46;100424.00;4921333;28;113250;-76
2021/06/19 04:38:54;;;;;;;12.05;9.25;;;;;;;22.15;60.83;100419.19;4937900;28;111088;-76
2021/06/19 04:41:33;;;;;;;10.27;9.07;;;;;;;21.72;61.36;100433.50;4937560;28;98305;-72
2021/06/19 04:46:28;;;;;;;9.73;8.82;;;;;;;22.06;60.81;100440.47;4929148;28;98167;-76
2021/06/19 04:48:54;;;;;;;9.73;8.77;;;;;;;22.36;60.49;100430.03;4937894;28;118335;-72
2021/06/19 04:51:20;;;;;;;9.68;8.73;;;;;;;22.66;58.89;100430.47;4938071;28;127314;-76
2021/06/19 04:53:46;;;;;;;9.68;8.77;;;;;;;22.60;59.33;100439.31;4931337;28;126428;-75
2021/06/19 04:56:12;;;;;;;9.25;8.32;;;;;;;22.74;58.70;100434.22;4936478;28;115898;-76
2021/06/19 04:58:38;;;;;;;9.15;8.35;;;;;;;22.88;58.05;100433.84;4920009;28;127876;-72
2021/06/19 05:01:04;;;;;;;9.75;8.85;;;;;;;23.17;57.47;100432.66;4919643;28;126684;-74
2021/06/19 05:03:31;;;;;;;9.18;8.30;;;;;;;23.29;56.80;100435.34;4938498;28;98642;-72
2021/06/19 05:06:00;;;;;;;9.10;7.93;;;;;;;23.57;56.09;100434.44;4901301;28;111266;-72
2021/06/19 05:08:26;;;;;;;10.43;8.90;;;;;;;23.74;55.95;100434.94;4929231;28;98442;-77
2021/06/19 05:10:52;;;;;;;9.27;8.23;;;;;;;23.83;55.43;100434.72;4938151;28;128691;-77
2021/06/19 05:13:18;;;;;;;9.13;7.82;;;;;;;23.95;55.48;100436.56;4938787;28;98129;-76
2021/06/19 05:15:45;;;;;;;8.15;7.35;;;;;;;23.88;55.25;100433.66;4937011;28;97967;-72
2021/06/19 05:18:11;;;;;;;10.32;7.70;;;;;;;23.95;56.53;100428.31;4903976;28;100316;-73
2021/06/19 05:20:37;;;;;;;7.72;7.03;;;;;;;24.19;56.43;100439.09;4930144;28;128688;-79
2021/06/19 05:23:08;;;;;;;9.88;8.50;;;;;;;24.38;60.75;100437.53;4903816;28;99573;-77
2021/06/19 05:25:36;;;;;;;8.30;7.50;;;;;;;24.49;56.02;100439.38;4921523;28;97968;-74
2021/06/19 05:28:02;;;;;;;9.00;7.57;;;;;;;24.48;57.49;100435.03;4936014;28;98719;-80
2021/06/19 05:30:29;;;;;;;7.97;7.28;;;;;;;24.16;55.86;100434.28;4935590;28;104044;-76
2021/06/19 05:32:55;;;;;;;7.60;6.90;;;;;;;24.85;56.02;100425.50;4938079;28;98131;-75
2021/06/19 05:35:21;;;;;;;7.82;7.10;;;;;;;24.69;53.95;100425.59;4936047;28;107783;-75
2021/06/19 05:37:47;;;;;;;8.02;7.22;;;;;;;24.76;52.99;100424.91;4936620;28;105685;-79
2021/06/19 05:40:13;;;;;;;7.55;6.90;;;;;;;25.30;52.72;100422.00;4937049;28;123556;-78
2021/06/19 05:42:39;;;;;;;7.63;6.80;;;;;;;25.35;51.40;100421.72;4916386;28;125210;-76
2021/06/19 05:45:06;;;;;;;8.05;6.78;;;;;;;25.40;51.34;100418.66;4936455;28;97899;-79
2021/06/19 05:47:32;;;;;;;7.80;6.97;;;;;;;26.02;50.65;100429.50;4917985;28;98456;-76
2021/06/19 05:49:58;;;;;;;7.43;6.10;;;;;;;26.95;47.41;100436.19;4935132;28;128584;-80
2021/06/19 05:52:25;;;;;;;6.32;5.75;;;;;;;27.62;45.34;100444.31;4935601;28;127267;-81
2021/06/19 05:54:52;;;;;;;6.47;5.97;;;;;;;28.83;42.98;100449.78;4902458;28;98345;-76
2021/06/19 05:57:18;;;;;;;6.80;5.93;;;;;;;29.80;39.73;100453.50;4936260;28;98014;-75
2021/06/19 05:59:44;;;;;;;6.40;5.80;;;;;;;31.91;35.76;100448.84;4934163;28;128066;-81
2021/06/19 06:02:10;;;;;;;6.22;5.72;;;;;;;33.34;34.37;100467.38;4901123;28;124650;-81
2021/06/19 06:04:36;;;;;;;5.90;5.30;;;;;;;34.26;30.66;100449.44;4919895;28;98116;-74
2021/06/19 06:07:02;;;;;;;5.43;4.95;;;;;;;32.49;34.10;100447.81;4938188;28;98706;-74
2021/06/19 06:09:28;;;;;;;5.70;4.70;;;;;;;32.66;32.41;100448.00;4936964;28;98708;-75
2021/06/19 06:11:54;;;;;;;5.10;4.60;;;;;;;33.05;31.98;100439.09;4936526;28;102336;-81
2021/06/19 06:14:21;;;;;;;6.05;4.60;;;;;;;34.39;30.51;100445.56;4935206;28;117947;-81
2021/06/19 06:16:47;;;;;;;5.85;5.00;;;;;;;35.04;30.65;100433.78;4933317;28;113099;-81
2021/06/19 06:19:15;;;;;;;5.30;4.75;;;;;;;34.72;30.80;100442.13;4936651;28;98686;-80
2021/06/19 06:21:41;;;;;;;4.72;4.32;;;;;;;36.84;27.94;100442.56;4920304;28;98690;-81
2021/06/19 06:24:08;;;;;;;4.70;4.30;;;;;;;37.96;26.88;100454.56;4918966;28;114031;-81
2021/06/19 06:26:34;;;;;;;4.75;4.10;;;;;;;37.31;26.08;100446.75;4935367;28;116635;-81
2021/06/19 06:29:00;;;;;;;4.55;4.15;;;;;;;36.79;26.33;100439.56;4925323;28;128231;-75
2021/06/19 06:31:26;;;;;;;4.53;3.97;;;;;;;36.07;28.82;100438.81;4933563;28;125032;-81
2021/06/19 06:33:52;;;;;;;4.70;4.30;;;;;;;35.45;28.54;100437.19;4903245;28;117250;-80
2021/06/19 06:36:18;;;;;;;4.80;4.38;;;;;;;35.44;29.19;100427.22;4936293;28;99181;-80
2021/06/19 06:38:44;;;;;;;4.50;4.10;;;;;;;35.81;28.87;100420.31;4934049;28;128418;-76
2021/06/19 06:41:11;;;;;;;4.35;3.95;;;;;;;35.27;29.40;100418.84;4935085;28;127304;-75
2021/06/19 06:43:37;;;;;;;5.28;4.07;;;;;;;33.60;31.71;100423.91;4938082;28;98089;-80
2021/06/19 06:46:03;;;;;;;5.72;4.10;;;;;;;33.09;33.24;100433.47;4936091;28;97952;-79
2021/06/19 06:48:29;;;;;;;4.53;4.20;;;;;;;33.47;31.67;100434.88;4936503;28;127194;-78
2021/06/19 06:50:57;;;;;;;4.68;4.28;;;;;;;32.71;33.76;100441.97;4919152;28;98214;-75
2021/06/19 06:53:23;;;;;;;4.82;4.38;;;;;;;32.62;33.50;100434.13;4936020;28;98219;-75
2021/06/19 06:55:49;;;;;;;4.65;4.13;;;;;;;32.39;35.00;100429.25;4937675;28;99553;-78
2021/06/19 06:58:15;;;;;;;5.25;3.97;;;;;;;32.52;34.47;100428.69;4935176;28;128288;-74
2021/06/19 07:00:41;;;;;;;4.72;4.20;;;;;;;32.10;34.58;100430.75;4936627;28;128399;-74
2021/06/19 07:03:07;;;;;;;4.65;4.25;;;;;;;33.23;33.68;100436.84;4910404;28;106363;-79
2021/06/19 07:05:34;;;;;;;4.78;4.38;;;;;;;33.38;35.55;100440.19;4919065;28;98010;-74
2021/06/19 07:08:00;;;;;;;5.40;4.40;;;;;;;33.37;31.99;100432.25;4919467;28;99519;-77
2021/06/19 07:10:26;;;;;;;4.70;4.30;;;;;;;33.10;33.50;100430.28;4937062;28;127588;-74
2021/06/19 07:12:52;;;;;;;4.82;4.30;;;;;;;33.55;33.43;100432.75;4937784;28;116825;-74
2021/06/19 07:15:18;;;;;;;5.20;4.10;;;;;;;33.69;31.23;100432.50;4902156;28;126619;-74
2021/06/19 07:17:45;;;;;;;4.80;4.35;;;;;;;33.51;33.17;100425.66;4919166;28;98986;-74
2021/06/19 07:20:12;;;;;;;4.97;4.47;;;;;;;33.18;31.74;100428.16;4935486;28;110128;-73
2021/06/19 07:22:38;;;;;;;4.93;4.03;;;;;;;34.15;30.70;100441.25;4939429;28;97782;-74
2021/06/19 07:25:06;;;;;;;4.75;4.20;;;;;;;34.05;33.28;100425.50;4940434;28;98926;-74
2021/06/19 07:27:32;;;;;;;4.60;4.20;;;;;;;34.62;30.19;100416.72;4937872;28;98188;-73
2021/06/19 07:29:58;;;;;;;5.50;4.20;;;;;;;34.31;30.88;100418.97;4938765;28;125646;-73
2021/06/19 07:32:24;;;;;;;5.05;4.20;;;;;;;34.80;30.61;100421.94;4901659;28;119213;-74
2021/06/19 07:34:50;;;;;;;4.90;4.50;;;;;;;34.07;31.02;100425.84;4918737;28;109963;-73
2021/06/19 07:37:17;;;;;;;5.57;4.28;;;;;;;34.12;32.52;100423.34;4922507;28;98758;-77
2021/06/19 07:39:43;;;;;;;5.03;4.53;;;;;;;33.84;31.95;100418.25;4940365;28;98464;-78
2021/06/19 07:42:09;;;;;;;5.50;4.30;;;;;;;34.53;29.73;100424.13;4938992;28;117724;-74
2021/06/19 07:44:35;;;;;;;6.20;4.47;;;;;;;34.59;30.31;100422.41;4939733;28;112914;-73
2021/06/19 07:47:02;;;;;;;5.10;4.40;;;;;;;35.12;31.12;100418.41;4937114;28;127047;-77
2021/06/19 07:49:28;;;;;;;5.57;4.30;;;;;;;35.75;31.96;100419.25;4921657;28;98339;-78
2021/06/19 07:51:55;;;;;;;4.30;4.00;;;;;;;35.58;28.24;100421.31;4938159;28;98319;-74
2021/06/19 07:54:21;;;;;;;4.50;4.10;;;;;;;36.27;27.98;100421.81;4939265;28;98630;-77
2021/06/19 07:56:47;;;;;;;6.45;4.20;;;;;;;37.10;26.96;100420.94;4919634;28;98964;-77
2021/06/19 07:59:17;;;;;;;5.60;3.80;;;;;;;37.33;26.09;100422.56;4939630;28;98303;-77
2021/06/19 08:01:43;;;;;;;6.18;4.10;;;;;;;37.77;24.29;100421.94;4937738;28;98475;-74
2021/06/19 08:04:09;;;;;;;5.85;4.40;;;;;;;37.47;25.51;100417.75;4920591;28;100110;-74
2021/06/19 08:06:35;;;;;;;4.53;4.13;;;;;;;38.54;26.25;100425.13;4918117;28;98244;-78
2021/06/19 08:09:01;;;;;;;4.35;3.95;;;;;;;39.31;22.64;100414.06;4937670;28;98960;-79
2021/06/19 08:11:27;;;;;;;4.75;4.25;;;;;;;39.57;22.87;100411.72;4922463;28;97778;-74
2021/06/19 08:13:53;;;;;;;5.55;4.07;;;;;;;39.14;23.93;100405.03;4938559;28;128492;-77
2021/06/19 08:16:20;;;;;;;5.28;4.10;;;;;;;39.79;23.92;100396.72;4936516;28;127333;-75
2021/06/19 08:18:47;;;;;;;4.95;4.30;;;;;;;39.82;23.78;100405.03;4939613;28;98511;-75
2021/06/19 08:21:16;;;;;;;4.47;4.07;;;;;;;39.97;22.01;100400.31;4936601;28;118420;-78
2021/06/19 08:23:42;;;;;;;4.85;4.07;;;;;;;39.76;24.00;100404.84;4936750;28;127893;-78
2021/06/19 08:26:08;;;;;;;4.15;3.78;;;;;;;39.33;22.64;100399.47;4939228;28;99284;-75
2021/06/19 08:28:34;;;;;;;4.43;4.03;;;;;;;39.78;22.94;100398.75;4937399;28;112081;-79
2021/06/19 08:31:02;;;;;;;4.32;3.92;;;;;;;39.67;23.17;100404.88;4885552;28;98236;-78
2021/06/19 08:33:29;;;;;;;4.50;4.10;;;;;;;40.11;23.07;100396.06;4917887;28;98565;-77
2021/06/19 08:35:55;;;;;;;4.85;4.25;;;;;;;39.52;23.36;100401.06;4938667;28;105766;-78
2021/06/19 08:38:21;;;;;;;4.75;4.22;;;;;;;41.26;21.03;100399.84;4938155;28;126227;-79
2021/06/19 08:40:47;;;;;;;4.90;4.15;;;;;;;41.11;21.47;100399.00;4938392;28;117593;-78
2021/06/19 08:43:13;;;;;;;4.38;3.97;;;;;;;40.50;21.37;100390.63;4935807;28;128107;-78
2021/06/19 08:45:39;;;;;;;4.93;4.38;;;;;;;41.64;21.23;100393.47;4936837;28;98583;-78
2021/06/19 08:48:06;;;;;;;5.38;4.43;;;;;;;40.24;21.34;100390.22;4900727;28;127668;-76
2021/06/19 08:50:32;;;;;;;4.90;4.40;;;;;;;41.16;21.00;100384.25;4920239;28;98176;-79
2021/06/19 08:52:59;;;;;;;6.43;4.55;;;;;;;40.80;21.84;100383.16;4902989;28;128536;-77
2021/06/19 08:55:25;;;;;;;4.55;4.15;;;;;;;42.27;18.55;100384.88;4901283;28;100942;-76
2021/06/19 08:57:51;;;;;;;5.05;4.18;;;;;;;41.13;19.69;100380.31;4901323;28;97959;-79
2021/06/19 09:00:18;;;;;;;5.25;4.30;;;;;;;41.99;19.11;100387.22;4936834;28;107266;-79
2021/06/19 09:02:46;;;;;;;4.72;4.22;;;;;;;42.28;19.33;100380.78;4937346;28;98039;-77
2021/06/19 09:05:14;;;;;;;4.85;4.40;;;;;;;41.60;21.03;100383.63;4938865;28;98594;-76
2021/06/19 09:07:44;;;;;;;5.18;4.25;;;;;;;39.91;22.45;100371.16;4938546;28;98134;-76
2021/06/19 09:10:33;;;;;;;4.83;4.20;;;;;;;41.07;21.76;100378.63;4938528;28;97960;-76
2021/06/19 09:13:19;;;;;;;4.78;4.38;;;;;;;42.80;19.58;100383.16;4938705;28;99055;-78
2021/06/19 09:15:54;;;;;;;5.15;4.47;;;;;;;41.84;21.28;100377.94;4936970;28;98363;-78
2021/06/19 09:18:27;;;;;;;4.72;4.32;;;;;;;40.38;22.08;100369.81;4913433;28;98816;-77
2021/06/19 09:21:04;;;;;;;4.78;4.35;;;;;;;39.19;23.80;100367.03;4939378;28;98251;-77
2021/06/19 09:23:40;;;;;;;4.72;4.32;;;;;;;39.31;24.10;100362.53;4916186;28;114491;-78
2021/06/19 09:26:20;;;;;;;5.75;4.60;;;;;;;39.60;23.59;100374.13;4937085;28;98875;-78
2021/06/19 09:29:11;;;;;;;4.47;4.13;;;;;;;39.64;22.09;100371.94;4938327;28;98622;-78
2021/06/19 09:31:51;;;;;;;4.60;4.15;;;;;;;41.65;20.69;100377.28;4938931;28;97976;-77
2021/06/19 09:34:21;;;;;;;6.55;4.50;;;;;;;40.90;21.42;100367.72;4935567;28;99265;-77
2021/06/19 09:37:02;;;;;;;4.97;4.50;;;;;;;41.35;21.84;100371.53;4932366;28;98951;-76
2021/06/19 09:39:30;;;;;;;4.70;4.00;;;;;;;42.39;22.70;100372.47;4936490;28;98039;-78
2021/06/19 09:42:03;;;;;;;4.88;4.30;;;;;;;42.33;20.86;100365.97;4937084;28;98201;-77
2021/06/19 09:44:47;;;;;;;4.78;4.30;;;;;;;41.77;20.68;100364.91;4919189;28;100561;-77
2021/06/19 09:47:17;;;;;;;5.80;4.18;;;;;;;41.32;19.88;100360.41;4919586;28;100253;-77
2021/06/19 09:49:46;;;;;;;4.83;3.93;;;;;;;41.31;20.83;100351.16;4921432;28;98607;-77
2021/06/19 09:52:13;;;;;;;6.90;4.40;;;;;;;41.85;19.92;100354.81;4938219;28;98125;-77
2021/06/19 09:54:40;;;;;;;5.30;4.80;;;;;;;40.20;22.07;100355.75;4936395;28;98563;-76
2021/06/19 09:57:14;;;;;;;4.32;4.00;;;;;;;41.62;21.24;100349.97;4918842;28;98125;-77
2021/06/19 09:59:40;;;;;;;5.20;4.80;;;;;;;41.21;21.39;100358.91;4935926;28;97915;-76
2021/06/19 10:02:27;;;;;;;6.10;4.95;;;;;;;42.74;19.55;100351.16;4937876;28;97963;-77
2021/06/19 10:04:56;;;;;;;5.15;4.57;;;;;;;42.08;20.04;100352.38;4935611;28;99426;-77
2021/06/19 10:07:24;;;;;;;4.70;4.30;;;;;;;43.45;19.11;100352.59;4937600;28;98623;-77
2021/06/19 10:09:51;;;;;;;4.85;4.40;;;;;;;42.23;18.87;100349.53;4919742;28;114443;-77
2021/06/19 10:12:22;;;;;;;5.55;4.32;;;;;;;41.39;20.17;100345.91;4938614;28;98048;-77
2021/06/19 10:15:08;;;;;;;4.93;4.43;;;;;;;42.19;20.73;100344.06;4934157;28;98624;-77
2021/06/19 10:17:37;;;;;;;5.28;3.90;;;;;;;41.84;19.94;100352.47;4930804;28;98824;-76
2021/06/19 10:20:05;;;;;;;4.03;3.70;;;;;;;41.96;19.84;100351.41;4936104;28;97958;-77
2021/06/19 10:22:36;;;;;;;4.88;3.97;;;;;;;42.71;18.73;100354.97;4919740;28;98011;-76
2021/06/19 10:25:06;;;;;;;5.57;3.95;;;;;;;41.26;20.33;100339.72;4935383;28;98492;-78
2021/06/19 10:27:33;;;;;;;4.68;4.15;;;;;;;41.71;19.59;100349.13;4919535;28;98737;-77
2021/06/19 10:29:59;;;;;;;4.57;4.18;;;;;;;43.25;18.88;100346.94;4935951;28;98412;-77
2021/06/19 10:32:42;;;;;;;5.55;4.40;;;;;;;44.40;17.45;100347.09;4916222;28;97917;-77
2021/06/19 10:35:09;;;;;;;4.22;3.90;;;;;;;42.59;19.15;100345.50;4930836;28;99705;-77
2021/06/19 10:37:35;;;;;;;4.90;4.30;;;;;;;42.24;20.25;100334.13;4937673;28;98966;-77
2021/06/19 10:40:37;;;;;;;5.28;4.45;;;;;;;43.83;17.46;100328.00;4936867;28;98177;-77
2021/06/19 10:43:13;;;;;;;4.60;4.20;;;;;;;43.90;17.96;100335.28;4934587;28;105863;-77
2021/06/19 10:45:43;;;;;;;4.82;4.05;;;;;;;43.91;18.11;100331.97;4937083;28;98881;-77
2021/06/19 10:48:10;;;;;;;;;;;;;;;42.76;19.75;100332.38;4941338;28;98824;-77
2021/06/19 10:50:37;;;;;;;4.70;4.30;;;;;;;43.04;19.55;100332.75;4938858;28;97871;-76
2021/06/19 10:53:20;;;;;;;4.90;4.50;;;;;;;42.44;20.54;100331.34;4906520;28;98057;-78
2021/06/19 10:55:58;;;;;;;5.65;4.25;;;;;;;43.32;17.70;100330.28;4940724;28;99273;-77
2021/06/19 10:58:33;;;;;;;4.63;4.30;;;;;;;39.43;23.17;100317.31;4941438;28;99223;-77
2021/06/19 11:01:03;;;;;;;4.65;4.25;;;;;;;41.19;20.03;100318.28;4922612;28;98206;-77
2021/06/19 11:03:49;;;;;;;4.97;4.57;;;;;;;42.55;19.03;100328.69;4938791;28;98323;-78
2021/06/19 11:06:26;;;;;;;4.80;4.40;;;;;;;41.28;21.64;100320.25;4938370;28;98656;-76
2021/06/19 11:09:08;;;;;;;4.55;4.15;;;;;;;40.27;23.28;100320.78;4939082;28;99061;-77
2021/06/19 11:11:49;;;;;;;5.10;3.88;;;;;;;40.80;23.22;100321.03;4938138;28;98409;-78
2021/06/19 11:17:10;;;;;;;6.28;4.70;;;;;;;41.76;20.45;100311.66;4937626;28;98367;-76
2021/06/19 11:19:50;;;;;;;4.95;4.53;;;;;;;42.28;19.76;100317.72;4938221;28;115190;-79
2021/06/19 11:22:41;;;;;;;4.55;4.22;;;;;;;42.41;19.39;100307.66;4939147;28;98931;-79
2021/06/19 11:28:19;;;;;;;4.85;4.40;;;;;;;39.75;21.53;100298.97;4937365;28;99694;-78
2021/06/19 11:30:53;;;;;;;4.75;4.22;;;;;;;41.74;20.53;100300.84;4939898;28;100176;-76
2021/06/19 11:33:25;;;;;;;4.82;4.28;;;;;;;41.33;20.14;100294.91;4922033;28;98553;-78
2021/06/19 11:36:00;;;;;;;4.40;4.00;;;;;;;42.06;21.05;100301.94;4940658;28;98072;-76